Time;durP1;ratioP1;P1;durP2;ratioP2;P2;SDS_P1;SDS_P2;PMS_P1;PMS_P2;Temp;Humidity;BMP_temperature;BMP_pressure;BME280_temperature;BME280_humidity;BME280_pressure;Samples;Min_cycle;Max_cycle;Signal;HPM_P1;HPM_P2
2023/01/08 00:01:23;;;;;;;45.00;29.80;;;;;;;5.59;69.71;99110.34;234556;1195;139919;-71
2023/01/08 00:08:22;;;;;;;44.70;29.30;;;;;;;5.71;69.31;99103.86;234100;1199;139701;-70
2023/01/08 00:21:26;;;;;;;;;;;;;;;;;;;;;
2023/01/08 00:28:47;;;;;;;;;;;;;;;;;;;;;
2023/01/08 00:35:00;;;;;;;;;;;;;;;;;;;;;
2023/01/08 01:01:40;;;;;;;41.10;25.60;;;;;;;5.96;69.35;99062.89;234279;1196;139418;-67
2023/01/08 01:07:25;;;;;;;;;;;;;;;;;;;;;
2023/01/08 01:12:51;;;;;;;38.80;24.40;;;;;;;6.09;68.93;99053.88;234394;1196;138960;-69
2023/01/08 01:18:59;;;;;;;37.60;24.80;;;;;;;6.11;68.69;99055.19;234558;1196;139944;-64
2023/01/08 01:24:35;;;;;;;;;;;;;;;;;;;;;
2023/01/08 01:30:39;;;;;;;37.00;24.00;;;;;;;6.03;68.61;99043.19;234279;1196;138624;-72
2023/01/08 01:38:01;;;;;;;34.10;23.20;;;;;;;6.02;68.30;99039.20;234385;1196;138961;-70
2023/01/08 01:43:54;;;;;;;39.00;24.10;;;;;;;5.93;68.27;99033.79;234390;1196;138826;-68
2023/01/08 01:55:41;;;;;;;35.70;23.00;;;;;;;5.84;68.25;99020.05;232069;1211;635023;-69
2023/01/08 02:02:07;;;;;;;;;;;;;;;;;;;;;
2023/01/08 02:08:25;;;;;;;;;;;;;;;;;;;;;
2023/01/08 02:14:52;;;;;;;32.80;21.40;;;;;;;5.64;68.01;98992.41;234397;1196;138575;-68
2023/01/08 02:21:25;;;;;;;34.90;21.80;;;;;;;5.56;67.88;98986.40;234450;1196;139089;-67
2023/01/08 02:27:49;;;;;;;31.50;20.50;;;;;;;5.47;68.14;98982.03;234285;1196;140212;-68
2023/01/08 02:34:23;;;;;;;;;;;;;;;;;;;;;
2023/01/08 02:47:28;;;;;;;;;;;;;;;;;;;;;
2023/01/08 02:54:31;;;;;;;;;;;;;;;;;;;;;
2023/01/08 03:07:36;;;;;;;28.00;18.30;;;;;;;4.81;68.26;98974.18;234276;1198;138975;-69
2023/01/08 03:26:44;;;;;;;25.90;17.10;;;;;;;4.82;68.49;98973.45;233857;1198;138908;-70
2023/01/08 03:58:32;;;;;;;;;;;;;;;;;;;;;
2023/01/08 04:04:56;;;;;;;;;;;;;;;;;;;;;
2023/01/08 04:11:59;;;;;;;22.80;17.00;;;;;;;4.56;68.33;98925.42;238971;1182;139654;-68
2023/01/08 04:17:56;;;;;;;;;;;;;;;;;;;;;
2023/01/08 04:24:09;;;;;;;29.50;18.00;;;;;;;4.41;68.37;98920.77;240016;1177;138922;-69
2023/01/08 04:34:50;;;;;;;;;;;;;;;;;;;;;
2023/01/08 04:41:13;;;;;;;;;;;;;;;;;;;;;
2023/01/08 04:47:29;;;;;;;28.20;16.50;;;;;;;4.16;68.85;98925.95;234410;1196;138207;-70
2023/01/08 04:53:32;;;;;;;25.50;17.10;;;;;;;4.08;68.66;98926.94;234288;1198;138623;-71
2023/01/08 04:59:32;;;;;;;22.30;15.50;;;;;;;4.05;68.87;98913.55;234331;1198;138518;-71
2023/01/08 05:05:36;;;;;;;;;;;;;;;3.98;68.90;98914.85;234345;1197;138429;-72
2023/01/08 05:11:44;;;;;;;29.30;16.80;;;;;;;4.01;69.06;98915.08;234366;1199;125307;-67
2023/01/08 05:24:17;;;;;;;;;;;;;;;;;;;;;
2023/01/08 05:36:45;;;;;;;;;;;;;;;;;;;;;
2023/01/08 05:43:23;;;;;;;22.60;15.90;;;;;;;3.85;68.14;98898.49;233586;1201;139247;-67
2023/01/08 05:50:03;;;;;;;;;;;;;;;;;;;;;
2023/01/08 05:56:21;;;;;;;27.60;18.50;;;;;;;3.74;68.12;98883.80;233755;1201;138797;-69
2023/01/08 06:02:15;;;;;;;;;;;;;;;;;;;;;
2023/01/08 06:08:32;;;;;;;30.20;18.80;;;;;;;3.62;68.35;98877.41;233715;1206;139229;-69
2023/01/08 06:15:25;;;;;;;30.80;20.50;;;;;;;3.55;68.35;98872.55;233755;1201;139123;-69
2023/01/08 06:20:52;;;;;;;33.10;20.00;;;;;;;3.44;67.99;98865.79;234167;1198;138646;-69
2023/01/08 06:27:16;;;;;;;25.90;18.00;;;;;;;3.38;68.24;98872.11;234146;1198;139757;-66
2023/01/08 06:33:24;;;;;;;30.20;19.50;;;;;;;3.47;68.30;98873.38;234136;1198;139420;-67
2023/01/08 06:39:33;;;;;;;;;;;;;;;;;;;;;
2023/01/08 06:56:44;;;;;;;40.00;27.00;;;;;;;3.73;69.30;98866.49;232660;1209;635856;-68
2023/01/08 07:09:06;;;;;;;20.40;14.50;;;;;;;3.97;69.47;98875.05;234304;1197;138880;-67
2023/01/08 07:15:17;;;;;;;76.10;48.70;;;;;;;3.99;69.84;98869.19;234252;1201;139032;-66
2023/01/08 07:21:41;;;;;;;22.70;14.30;;;;;;;4.05;69.36;98868.61;234343;1198;139713;-68
2023/01/08 07:27:45;;;;;;;20.40;13.80;;;;;;;4.07;69.43;98867.48;234322;1198;139983;-66
2023/01/08 07:34:02;;;;;;;20.90;13.90;;;;;;;4.15;69.41;98865.60;234365;1197;139650;-68
2023/01/08 07:40:16;;;;;;;;;;;;;;;;;;;;;
2023/01/08 07:46:52;;;;;;;;;;;;;;;;;;;;;
2023/01/08 08:00:10;;;;;;;19.70;13.40;;;;;;;4.49;68.87;98826.80;233553;1199;138777;-72
2023/01/08 08:12:43;;;;;;;;;;;;;;;;;;;;;
2023/01/08 08:26:34;;;;;;;18.60;12.90;;;;;;;4.52;69.70;98801.41;234700;1194;138744;-67
2023/01/08 08:31:26;;;;;;;17.30;12.60;;;;;;;4.67;69.79;98795.13;234776;1193;140246;-68
2023/01/08 08:37:23;;;;;;;16.70;12.10;;;;;;;4.84;69.75;98779.48;235222;1197;140165;-70
2023/01/08 08:43:11;;;;;;;98.90;65.50;;;;;;;5.08;70.37;98769.32;235107;1193;139003;-70
2023/01/08 08:49:36;;;;;;;18.90;13.60;;;;;;;5.29;69.57;98754.11;235134;1193;139676;-67
2023/01/08 08:56:01;;;;;;;18.40;13.20;;;;;;;5.35;69.43;98757.92;235145;1193;139342;-67
2023/01/08 09:08:59;;;;;;;16.60;12.20;;;;;;;5.56;69.64;98758.89;234971;1194;139195;-69
2023/01/08 09:14:41;;;;;;;191.70;124.50;;;;;;;5.72;69.98;98750.94;234857;1193;139045;-71
2023/01/08 09:20:55;;;;;;;;;;;;;;;;;;;;;
2023/01/08 09:33:40;;;;;;;14.30;10.40;;;;;;;6.33;69.22;98730.20;232638;1212;666958;-70
2023/01/08 09:40:10;;;;;;;18.10;13.60;;;;;;;6.48;68.75;98721.70;234329;1196;139173;-66
2023/01/08 09:45:50;;;;;;;147.70;92.50;;;;;;;6.68;68.90;98710.63;234308;1198;139734;-67
2023/01/08 09:51:50;;;;;;;17.40;11.40;;;;;;;6.85;68.59;98697.93;234199;1199;139305;-68
2023/01/08 09:57:12;;;;;;;;;;;;;;;;;;;;;
2023/01/08 10:02:37;;;;;;;;;;;;;;;;;;;;;
2023/01/08 10:08:53;;;;;;;12.30;8.60;;;;;;;7.00;68.00;98662.76;234262;1199;139866;-68
2023/01/08 10:14:38;;;;;;;;;;;;;;;;;;;;;
2023/01/08 10:21:31;;;;;;;;;;;;;;;;;;;;;
2023/01/08 10:26:47;;;;;;;13.80;9.90;;;;;;;8.10;72.47;98634.54;234250;1198;138699;-67
2023/01/08 10:32:09;;;;;;;;;;;;;;;;;;;;;
2023/01/08 10:37:49;;;;;;;15.10;11.20;;;;;;;8.00;66.13;98610.20;234381;1197;140381;-68
2023/01/08 10:43:35;;;;;;;159.20;102.30;;;;;;;7.92;66.33;98597.44;234258;1199;244112;-66
2023/01/08 10:56:17;;;;;;;16.50;10.30;;;;;;;8.33;66.83;98588.14;232094;1212;644998;-65
2023/01/08 11:02:02;;;;;;;;;;;;;;;;;;;;;
2023/01/08 11:08:05;;;;;;;17.70;11.30;;;;;;;8.12;65.06;98563.73;234200;1200;140349;-68
2023/01/08 11:14:39;;;;;;;;;;;;;;;;;;;;;
2023/01/08 11:20:49;;;;;;;18.50;12.60;;;;;;;7.90;65.39;98555.87;233888;1199;139161;-65
2023/01/08 11:26:43;;;;;;;191.50;122.10;;;;;;;7.86;65.96;98552.25;234101;1199;139135;-65
2023/01/08 11:33:05;;;;;;;19.20;13.50;;;;;;;7.89;66.07;98544.81;234219;1199;140355;-64
2023/01/08 11:39:21;;;;;;;;;;;;;;;;;;;;;
2023/01/08 11:46:03;;;;;;;;;;;;;;;;;;;;;
2023/01/08 11:53:05;;;;;;;13.20;10.20;;;;;;;8.04;66.16;98518.98;233348;1206;138645;-65
2023/01/08 11:59:37;;;;;;;13.80;10.70;;;;;;;8.17;66.42;98514.69;233360;1205;140120;-67
2023/01/08 12:05:57;;;;;;;;;;;;;;;;;;;;;
2023/01/08 12:12:11;;;;;;;16.90;11.90;;;;;;;8.75;66.81;98504.21;234289;1196;139418;-68
2023/01/08 12:17:50;;;;;;;19.00;11.50;;;;;;;8.76;65.39;98491.59;234204;1196;139507;-67
2023/01/08 12:23:56;;;;;;;16.70;11.30;;;;;;;8.78;65.20;98482.30;234394;1196;138754;-66
2023/01/08 12:29:50;;;;;;;14.00;10.40;;;;;;;8.81;64.97;98473.62;234413;1198;138665;-69
2023/01/08 12:42:06;;;;;;;;;;;;;;;;;;;;;
2023/01/08 12:56:07;;;;;;;;;;;;;;;;;;;;;
2023/01/08 13:02:32;;;;;;;;;;;;;;;;;;;;;
2023/01/08 13:08:25;;;;;;;15.80;10.90;;;;;;;9.59;64.22;98424.25;234038;1199;139914;-67
2023/01/08 13:13:42;;;;;;;14.10;10.10;;;;;;;9.63;63.97;98420.42;234002;1203;139480;-68
2023/01/08 13:19:39;;;;;;;12.60;9.60;;;;;;;9.64;63.64;98414.13;234022;1200;139645;-66
2023/01/08 13:26:15;;;;;;;12.90;9.10;;;;;;;9.65;63.79;98420.62;234111;1200;138613;-67
2023/01/08 13:31:48;;;;;;;13.70;9.50;;;;;;;9.69;63.74;98429.39;233936;1203;138402;-66
2023/01/08 13:36:57;;;;;;;15.20;9.00;;;;;;;9.70;63.75;98427.36;234098;1199;138634;-64
2023/01/08 13:43:13;;;;;;;70.00;46.90;;;;;;;9.71;64.19;98431.34;234282;1196;140895;-68
2023/01/08 13:49:32;;;;;;;19.80;13.30;;;;;;;9.79;64.68;98436.68;234358;1200;139925;-64
2023/01/08 13:55:03;;;;;;;44.00;28.00;;;;;;;9.80;65.12;98436.77;234309;1196;139557;-64
2023/01/08 14:00:53;;;;;;;;;;;;;;;;;;;;;
2023/01/08 14:06:16;;;;;;;23.20;16.00;;;;;;;9.56;63.63;98436.83;234256;1196;140316;-63
2023/01/08 14:11:38;;;;;;;21.80;16.10;;;;;;;9.49;63.57;98444.93;234204;1196;139825;-65
2023/01/08 14:17:13;;;;;;;;;;;;;;;;;;;;;
2023/01/08 14:23:26;;;;;;;25.10;17.10;;;;;;;9.20;63.68;98449.83;234293;1196;139017;-67
2023/01/08 14:29:12;;;;;;;;;;;;;;;;;;;;;
2023/01/08 14:35:08;;;;;;;;;;;;;;;;;;;;;
2023/01/08 14:41:14;;;;;;;42.70;28.70;;;;;;;9.26;68.16;98452.83;234184;1196;139771;-66
2023/01/08 14:47:44;;;;;;;26.90;17.20;;;;;;;9.00;64.16;98451.14;234433;1199;139613;-66
2023/01/08 14:52:54;;;;;;;24.80;17.80;;;;;;;8.64;64.66;98450.80;234373;1196;138929;-66
2023/01/08 14:58:32;;;;;;;26.10;17.60;;;;;;;8.45;64.70;98448.28;234137;1197;139962;-66
2023/01/08 15:04:16;;;;;;;26.50;17.40;;;;;;;8.26;65.06;98445.58;234301;1196;139056;-69
2023/01/08 15:18:20;;;;;;;25.90;17.70;;;;;;;8.11;66.62;98441.39;234490;1196;139314;-71
2023/01/08 15:31:22;;;;;;;26.20;17.90;;;;;;;7.87;65.38;98436.14;234092;1197;139010;-68
2023/01/08 15:37:29;;;;;;;;;;;;;;;;;;;;;
2023/01/08 15:44:02;;;;;;;29.40;19.10;;;;;;;7.52;66.00;98432.92;233775;1198;139575;-71
2023/01/08 15:50:00;;;;;;;;;;;;;;;;;;;;;
2023/01/08 15:56:25;;;;;;;27.90;19.40;;;;;;;7.30;66.33;98441.62;234017;1202;142552;-69
2023/01/08 16:08:46;;;;;;;108.00;75.70;;;;;;;7.08;66.98;98409.58;234543;1196;140057;-70
2023/01/08 16:22:15;;;;;;;32.80;21.90;;;;;;;6.89;66.56;98397.61;234206;1199;138969;-72
2023/01/08 16:27:36;;;;;;;;;;;;;;;;;;;;;
2023/01/08 16:33:13;;;;;;;;;;;;;;;;;;;;;
2023/01/08 16:38:31;;;;;;;;;;;;;;;;;;;;;
2023/01/08 16:44:04;;;;;;;30.40;20.80;;;;;;;6.57;66.71;98385.14;234448;1195;138943;-69
2023/01/08 16:55:54;;;;;;;33.30;22.10;;;;;;;6.40;66.92;98385.06;231087;1212;644366;-67
2023/01/08 17:02:22;;;;;;;;;;;;;;;;;;;;;
2023/01/08 17:07:50;;;;;;;;;;;;;;;;;;;;;
2023/01/08 17:14:11;;;;;;;;;;;;;;;;;;;;;
2023/01/08 17:27:03;;;;;;;46.30;26.80;;;;;;;6.04;67.77;98399.73;234252;1198;138822;-69
2023/01/08 17:34:12;;;;;;;34.30;22.80;;;;;;;5.91;68.12;98389.83;233889;1199;138774;-65
2023/01/08 17:39:18;;;;;;;40.70;24.00;;;;;;;5.88;67.97;98389.41;234262;1199;139979;-69
2023/01/08 17:56:03;;;;;;;;;;;;;;;;;;;;;
2023/01/08 18:02:07;;;;;;;38.30;24.20;;;;;;;5.84;67.95;98384.70;234693;1194;138981;-69
2023/01/08 18:21:48;;;;;;;39.40;24.70;;;;;;;5.64;67.89;98394.56;234093;1200;138615;-71
2023/01/08 18:27:46;;;;;;;;;;;;;;;;;;;;;
2023/01/08 18:34:16;;;;;;;;;;;;;;;;;;;;;
2023/01/08 18:47:02;;;;;;;76.10;50.40;;;;;;;5.54;68.34;98394.25;234302;1197;139988;-70
2023/01/08 18:53:23;;;;;;;;;;;;;;;;;;;;;
2023/01/08 20:19:31;;;;;;;66.50;43.00;;;;;;;5.72;69.38;98300.17;231567;1200;139075;-67
2023/01/08 20:28:56;;;;;;;171.10;111.50;;;;;;;5.60;68.45;98305.07;234444;1193;647677;-70
2023/01/08 20:35:21;;;;;;;65.00;42.50;;;;;;;6.07;71.55;98290.50;236371;1187;139706;-68
2023/01/08 20:41:45;;;;;;;61.30;41.40;;;;;;;6.10;66.90;98272.96;236195;1187;138850;-68
2023/01/08 20:54:31;;;;;;;65.20;41.50;;;;;;;5.57;67.82;98261.77;230656;1212;636382;-67
2023/01/08 21:00:59;;;;;;;65.10;41.00;;;;;;;5.41;67.88;98258.73;232765;1193;138267;-68
2023/01/08 21:07:10;;;;;;;66.10;40.90;;;;;;;5.35;68.67;98252.89;232717;1193;138827;-68
2023/01/08 21:13:12;;;;;;;70.40;42.00;;;;;;;5.34;69.01;98234.34;232837;1193;138599;-68
2023/01/08 21:19:37;;;;;;;70.10;43.70;;;;;;;5.28;69.38;98229.19;232833;1198;138422;-67
2023/01/08 21:25:44;;;;;;;70.90;42.70;;;;;;;5.28;70.13;98226.60;233442;1193;138611;-68
2023/01/08 21:32:10;;;;;;;71.60;43.50;;;;;;;5.32;70.49;98209.80;233137;1192;139106;-67
2023/01/08 21:38:31;;;;;;;;;;;;;;;;;;;;;
2023/01/08 21:50:57;;;;;;;75.70;45.70;;;;;;;5.58;70.21;98196.28;233132;1193;138305;-67
2023/01/08 21:57:12;;;;;;;81.00;49.50;;;;;;;5.57;70.20;98188.04;233002;1190;138717;-68
2023/01/08 22:03:36;;;;;;;78.70;45.90;;;;;;;5.56;70.38;98179.67;232962;1192;139159;-68
2023/01/08 22:09:51;;;;;;;;;;;;;;;;;;;;;
2023/01/08 22:16:18;;;;;;;73.90;45.80;;;;;;;5.54;70.66;98165.86;232826;1193;138773;-68
2023/01/08 22:22:33;;;;;;;;;;;;;;;;;;;;;
2023/01/08 22:28:59;;;;;;;72.10;42.70;;;;;;;5.60;70.76;98150.58;232920;1196;138603;-69
2023/01/08 22:35:14;;;;;;;66.40;39.60;;;;;;;5.71;70.71;98141.52;232951;1193;139928;-68
2023/01/08 22:48:28;;;;;;;60.70;38.10;;;;;;;5.92;70.68;98136.28;231631;1201;141230;-67
2023/01/08 22:54:09;;;;;;;64.40;37.80;;;;;;;5.97;70.45;98124.39;234140;1198;139205;-67
2023/01/08 23:00:29;;;;;;;;;;;;;;;;;;;;;
2023/01/08 23:06:58;;;;;;;57.70;36.40;;;;;;;6.01;70.27;98105.34;235221;1192;140105;-67
2023/01/08 23:12:50;;;;;;;53.00;34.20;;;;;;;6.01;70.17;98100.56;235277;1193;139928;-67
2023/01/08 23:18:52;;;;;;;53.50;34.10;;;;;;;6.00;70.22;98089.50;235404;1190;138940;-68
2023/01/08 23:24:29;;;;;;;;;;;;;;;;;;;;;
2023/01/08 23:31:05;;;;;;;52.70;32.70;;;;;;;6.04;70.06;98066.74;235317;1196;139366;-67
2023/01/08 23:37:08;;;;;;;52.40;33.10;;;;;;;6.14;70.01;98059.48;234910;1193;139257;-67
2023/01/08 23:43:57;;;;;;;;;;;;;;;;;;;;;
2023/01/08 23:55:55;;;;;;;48.60;30.30;;;;;;;6.24;69.76;98034.89;230908;1208;635769;-67
